Map

Track Data

SID SEASON NUMBER BASIN SUBBASIN NAME ISO_TIME NATURE LAT LON WMO_WIND WMO_PRES WMO_AGENCY TRACK_TYPE DIST2LAND LANDFALL IFLAG USA_AGENCY USA_ATCF_ID USA_LAT USA_LON USA_RECORD USA_STATUS USA_WIND USA_PRES USA_SSHS USA_R34_NE USA_R34_SE USA_R34_SW USA_R34_NW USA_R50_NE USA_R50_SE USA_R50_SW USA_R50_NW USA_R64_NE USA_R64_SE USA_R64_SW USA_R64_NW USA_POCI USA_ROCI USA_RMW USA_EYE TOKYO_LAT TOKYO_LON TOKYO_GRADE TOKYO_WIND TOKYO_PRES TOKYO_R50_DIR TOKYO_R50_LONG TOKYO_R50_SHORT TOKYO_R30_DIR TOKYO_R30_LONG TOKYO_R30_SHORT TOKYO_LAND CMA_LAT CMA_LON CMA_CAT CMA_WIND CMA_PRES HKO_LAT HKO_LON HKO_CAT HKO_WIND HKO_PRES NEWDELHI_LAT NEWDELHI_LON NEWDELHI_GRADE NEWDELHI_WIND NEWDELHI_PRES NEWDELHI_CI NEWDELHI_DP NEWDELHI_POCI REUNION_LAT REUNION_LON REUNION_TYPE REUNION_WIND REUNION_PRES REUNION_TNUM REUNION_CI REUNION_RMW REUNION_R34_NE REUNION_R34_SE REUNION_R34_SW REUNION_R34_NW REUNION_R50_NE REUNION_R50_SE REUNION_R50_SW REUNION_R50_NW REUNION_R64_NE REUNION_R64_SE REUNION_R64_SW REUNION_R64_NW BOM_LAT BOM_LON BOM_TYPE BOM_WIND BOM_PRES BOM_TNUM BOM_CI BOM_RMW BOM_R34_NE BOM_R34_SE BOM_R34_SW BOM_R34_NW BOM_R50_NE BOM_R50_SE BOM_R50_SW BOM_R50_NW BOM_R64_NE BOM_R64_SE BOM_R64_SW BOM_R64_NW BOM_ROCI BOM_POCI BOM_EYE BOM_POS_METHOD BOM_PRES_METHOD NADI_LAT NADI_LON NADI_CAT NADI_WIND NADI_PRES WELLINGTON_LAT WELLINGTON_LON WELLINGTON_WIND WELLINGTON_PRES DS824_LAT DS824_LON DS824_STAGE DS824_WIND DS824_PRES TD9636_LAT TD9636_LON TD9636_STAGE TD9636_WIND TD9636_PRES TD9635_LAT TD9635_LON TD9635_WIND TD9635_PRES TD9635_ROCI NEUMANN_LAT NEUMANN_LON NEUMANN_CLASS NEUMANN_WIND NEUMANN_PRES MLC_LAT MLC_LON MLC_CLASS MLC_WIND MLC_PRES USA_GUST BOM_GUST BOM_GUST_PER REUNION_GUST REUNION_GUST_PER USA_SEAHGT USA_SEARAD_NE USA_SEARAD_SE USA_SEARAD_SW USA_SEARAD_NW STORM_SPEED STORM_DIR
1858319N12280 1858 20 NA CS NOT_NAMED 1858-11-14 12:00:00 TS 11.8000 -79.6000 main 257 257 _____________O -1 11.8000 -79.6000 TD 30 4 41
1858319N12280 1858 20 NA CS NOT_NAMED 1858-11-14 15:00:00 TS 11.9600 -79.4550 main 280 280 _____________P -1 11.9600 -79.4550 TD 30 4 44
1858319N12280 1858 20 NA CS NOT_NAMED 1858-11-14 18:00:00 TS 12.1000 -79.3000 main 291 291 _____________O -1 12.1000 -79.3000 TD 30 4 52
1858319N12280 1858 20 NA CS NOT_NAMED 1858-11-14 21:00:00 TS 12.2075 -79.1350 main 302 302 _____________P -1 12.2075 -79.1350 TD 30 4 56
1858319N12280 1858 20 NA CS NOT_NAMED 1858-11-15 00:00:00 TS 12.3000 -79.0000 main 313 313 _____________O -1 12.3000 -79.0000 TD 30 3 45
1858319N12280 1858 20 NA CS NOT_NAMED 1858-11-15 03:00:00 TS 12.4000 -78.9350 main 325 325 _____________P -1 12.4000 -78.9350 TD 30 2 27
1858319N12280 1858 20 NA CS NOT_NAMED 1858-11-15 06:00:00 TS 12.5000 -78.9000 main 336 336 _____________O -1 12.5000 -78.9000 TD 30 2 24
1858319N12280 1858 20 NA CS NOT_NAMED 1858-11-15 09:00:00 TS 12.5775 -78.8575 main 347 347 _____________P -1 12.5775 -78.8575 TD 32 2 27
1858319N12280 1858 20 NA CS NOT_NAMED 1858-11-15 12:00:00 TS 12.7000 -78.8000 main 359 359 _____________O -1 12.7000 -78.8000 TS 35 4 23
1858319N12280 1858 20 NA CS NOT_NAMED 1858-11-15 15:00:00 TS 12.9350 -78.7075 main 383 383 _____________P -1 12.9350 -78.7075 TS 35 5 21
1858319N12280 1858 20 NA CS NOT_NAMED 1858-11-15 18:00:00 TS 13.2000 -78.6000 main 417 417 _____________O -1 13.2000 -78.6000 TS 35 5 23
1858319N12280 1858 20 NA CS NOT_NAMED 1858-11-15 21:00:00 TS 13.4000 -78.5000 main 441 441 _____________P -1 13.4000 -78.5000 TS 35 4 26
1858319N12280 1858 20 NA CS NOT_NAMED 1858-11-16 00:00:00 TS 13.6000 -78.4000 main 460 452 _____________O -1 13.6000 -78.4000 TS 35 5 23
1858319N12280 1858 20 NA CS NOT_NAMED 1858-11-16 03:00:00 TS 13.8500 -78.3000 main 441 416 _____________P -1 13.8500 -78.3000 TS 35 5 21
1858319N12280 1858 20 NA CS NOT_NAMED 1858-11-16 06:00:00 TS 14.1000 -78.2000 main 416 392 _____________O -1 14.1000 -78.2000 TS 35 5 24
1858319N12280 1858 20 NA CS NOT_NAMED 1858-11-16 09:00:00 TS 14.2925 -78.1000 main 392 368 _____________P -1 14.2925 -78.1000 TS 37 4 26
1858319N12280 1858 20 NA CS NOT_NAMED 1858-11-16 12:00:00 TS 14.5000 -78.0000 main 368 333 _____________O -1 14.5000 -78.0000 TS 40 5 22
1858319N12280 1858 20 NA CS NOT_NAMED 1858-11-16 15:00:00 TS 14.7850 -77.8925 main 333 297 _____________P -1 14.7850 -77.8925 TS 40 6 18
1858319N12280 1858 20 NA CS NOT_NAMED 1858-11-16 18:00:00 TS 15.1000 -77.8000 main 297 265 _____________O -1 15.1000 -77.8000 TS 40 6 13
1858319N12280 1858 20 NA CS NOT_NAMED 1858-11-16 21:00:00 TS 15.4000 -77.7499 main 262 230 _____________P -1 15.4000 -77.7499 TS 40 6 9
1858319N12280 1858 20 NA CS NOT_NAMED 1858-11-17 00:00:00 TS 15.7000 -77.7000 main 230 194 _____________O -1 15.7000 -77.7000 TS 40 6 14
1858319N12280 1858 20 NA CS NOT_NAMED 1858-11-17 03:00:00 TS 16.0075 -77.5926 main 194 159 _____________P -1 16.0075 -77.5926 TS 42 6 18
1858319N12280 1858 20 NA CS NOT_NAMED 1858-11-17 06:00:00 TS 16.3000 -77.5000 main 159 127 _____________O -1 16.3000 -77.5000 TS 45 6 12
1858319N12280 1858 20 NA CS NOT_NAMED 1858-11-17 09:00:00 TS 16.5875 -77.4625 main 127 105 _____________P -1 16.5875 -77.4625 TS 45 5 2
1858319N12280 1858 20 NA CS NOT_NAMED 1858-11-17 12:00:00 TS 16.8000 -77.5000 main 105 99 _____________O -1 16.8000 -77.5000 TS 45 3 331
1858319N12280 1858 20 NA CS NOT_NAMED 1858-11-17 15:00:00 TS 16.8800 -77.6350 main 99 99 _____________P -1 16.8800 -77.6350 TS 45 3 289
1858319N12280 1858 20 NA CS NOT_NAMED 1858-11-17 18:00:00 TS 16.9000 -77.8000 main 109 102 _____________O -1 16.9000 -77.8000 TS 45 3 287
1858319N12280 1858 20 NA CS NOT_NAMED 1858-11-17 21:00:00 TS 16.9575 -77.9000 main 102 102 _____________P -1 16.9575 -77.9000 TS 42 2 298
1858319N12280 1858 20 NA CS NOT_NAMED 1858-11-18 00:00:00 TS 17.0000 -78.0000 main 105 105 _____________O -1 17.0000 -78.0000 TS 40 2 282
1858319N12280 1858 20 NA CS NOT_NAMED 1858-11-18 03:00:00 TS 17.0075 -78.1500 main 113 113 _____________P -1 17.0075 -78.1500 TS 40 3 270
1858319N12280 1858 20 NA CS NOT_NAMED 1858-11-18 06:00:00 TS 17.0000 -78.3000 main 119 119 _____________O -1 17.0000 -78.3000 TS 40 3 268
1858319N12280 1858 20 NA CS NOT_NAMED 1858-11-18 09:00:00 TS 16.9975 -78.4125 main 125 125 _____________P -1 16.9975 -78.4125 TS 37 2 270
1858319N12280 1858 20 NA CS NOT_NAMED 1858-11-18 12:00:00 TS 17.0000 -78.5000 main 131 _____________O -1 17.0000 -78.5000 TS 35 2 272

About IBTrACS Database

This database is a web-friendly format of International Best Track Archive for Climate Stewardship (IBTrACS), a global best track data archive curated by NOAA dating back to 1842.

Updated: 2021-10-21